Aviation Digital Data Service (ADDS)

Output produced by METARs form (0656 UTC 20 March 2019)
found at http://www.aviationweather.gov/metar/data/
 
Forecast for: LIBD (BARI/PALESE MACC, IT)
Text: TAF LIBD 200500Z 2006/2106 35010KT 9999 SCT030
Forecast period: 0600 UTC 20 March 2019 to 0600 UTC 21 March 2019
Forecast type: FROM: standard forecast or significant change
Winds: from the N (350 degrees) at 12 MPH (10 knots; 5.1 m/s)
Visibility: 6 or more miles 10+ km)
Ceiling: at least 12,000 feet AGL
Clouds: scattered clouds at 3000 feet AGL
Weather: no significant weather forecast for this period
Text: TEMPO 2006/2009 4000 RA
Forecast period: 0600 to 0900 UTC 20 March 2019
Forecast type: TEMPORARY: The following changes expected for less than half the time period
Visibility: 2.49 miles (4.01 km)
Ceiling: unknown
Clouds: missing
Weather: RA  (moderate rain)